CHH7775 ZJHK-ZGSZ
Flight info
| Callsign | CHH7775 |
|---|---|
| Flight time | 0h 49m |
| Altitude | 31100 |
| Route | SAMAS G221 BIGRO W552 LOVTA |
| Aircraft | B738/M-SDE2E3FGHIJ1RWXY/LB1 |
Departure
| Time | 2026-04-23 01:41 |
|---|---|
| Airport | Haikou Meilan International Airport (ZJHK) |
Arrival
| Time | 2026-04-23 02:30 |
|---|---|
| Airport | Shenzhen Bao'an International Airport (ZGSZ) |
| Time | Latitude | Longitude | Altitude | Speed | Heading |
|---|---|---|---|---|---|
| 2026-04-23 01:18 | 19.94998 | 110.45424 | 58 ft | 0 kts | 181° |
| 2026-04-23 01:31 | 19.95007 | 110.45424 | 55 ft | 2 kts | 181° |
| 2026-04-23 01:32 | 19.95019 | 110.45424 | 53 ft | 2 kts | 181° |
| 2026-04-23 01:32 | 19.95031 | 110.45424 | 54 ft | 2 kts | 180° |
| 2026-04-23 01:32 | 19.95042 | 110.45424 | 50 ft | 2 kts | 180° |
| 2026-04-23 01:32 | 19.95054 | 110.45424 | 51 ft | 2 kts | 206° |
| 2026-04-23 01:33 | 19.95060 | 110.45433 | 51 ft | 2 kts | 265° |
| 2026-04-23 01:33 | 19.95061 | 110.45446 | 52 ft | 2 kts | 269° |
| 2026-04-23 01:33 | 19.95061 | 110.45457 | 54 ft | 0 kts | 269° |
| 2026-04-23 01:35 | 19.95061 | 110.45419 | 55 ft | 17 kts | 270° |
| 2026-04-23 01:36 | 19.95061 | 110.45292 | 58 ft | 7 kts | 269° |
| 2026-04-23 01:36 | 19.95083 | 110.45249 | 55 ft | 7 kts | 326° |
| 2026-04-23 01:36 | 19.95131 | 110.45242 | 55 ft | 8 kts | 359° |
| 2026-04-23 01:36 | 19.95190 | 110.45220 | 57 ft | 12 kts | 311° |
| 2026-04-23 01:37 | 19.95202 | 110.45121 | 60 ft | 16 kts | 270° |
| 2026-04-23 01:37 | 19.95204 | 110.45016 | 60 ft | 8 kts | 278° |
| 2026-04-23 01:37 | 19.95246 | 110.44985 | 55 ft | 8 kts | 355° |
| 2026-04-23 01:37 | 19.95255 | 110.44985 | 59 ft | 0 kts | 359° |
| 2026-04-23 01:39 | 19.95279 | 110.44984 | 59 ft | 6 kts | 359° |
| 2026-04-23 01:39 | 19.95330 | 110.44988 | 59 ft | 12 kts | 13° |
| 2026-04-23 01:39 | 19.95372 | 110.45071 | 64 ft | 8 kts | 89° |
| 2026-04-23 01:39 | 19.95372 | 110.45073 | 62 ft | 0 kts | 88° |
| 2026-04-23 01:40 | 19.95372 | 110.45078 | 63 ft | 5 kts | 90° |
| 2026-04-23 01:40 | 19.95373 | 110.45379 | 67 ft | 85 kts | 89° |
| 2026-04-23 01:40 | 19.95372 | 110.46301 | 66 ft | 162 kts | 88° |
| 2026-04-23 01:40 | 19.95390 | 110.47651 | 587 ft | 192 kts | 90° |
| 2026-04-23 01:41 | 19.95416 | 110.49109 | 1668 ft | 198 kts | 92° |
| 2026-04-23 01:41 | 19.95605 | 110.50573 | 2455 ft | 219 kts | 68° |
| 2026-04-23 01:41 | 19.96633 | 110.51896 | 2837 ft | 246 kts | 35° |
| 2026-04-23 01:41 | 19.98222 | 110.52610 | 3529 ft | 248 kts | 18° |
| 2026-04-23 01:42 | 19.99881 | 110.53210 | 4111 ft | 254 kts | 21° |
| 2026-04-23 01:42 | 20.01509 | 110.53940 | 4858 ft | 254 kts | 25° |
| 2026-04-23 01:42 | 20.03095 | 110.54818 | 5535 ft | 260 kts | 29° |
| 2026-04-23 01:42 | 20.04657 | 110.55811 | 6348 ft | 263 kts | 31° |
| 2026-04-23 01:43 | 20.06205 | 110.56862 | 7150 ft | 267 kts | 33° |
| 2026-04-23 01:43 | 20.07779 | 110.57957 | 7912 ft | 272 kts | 33° |
| 2026-04-23 01:43 | 20.09386 | 110.59024 | 8796 ft | 274 kts | 22° |
| 2026-04-23 01:43 | 20.11261 | 110.59413 | 9440 ft | 283 kts | 355° |
| 2026-04-23 01:44 | 20.13255 | 110.59008 | 9882 ft | 298 kts | 344° |
| 2026-04-23 01:44 | 20.15300 | 110.58459 | 10385 ft | 313 kts | 344° |
| 2026-04-23 01:44 | 20.17505 | 110.57875 | 10554 ft | 339 kts | 344° |
| 2026-04-23 01:44 | 20.19868 | 110.57263 | 10756 ft | 360 kts | 345° |
| 2026-04-23 01:45 | 20.22346 | 110.56631 | 11238 ft | 369 kts | 345° |
| 2026-04-23 01:45 | 20.24855 | 110.55997 | 11925 ft | 372 kts | 345° |
| 2026-04-23 01:45 | 20.27377 | 110.55361 | 12655 ft | 373 kts | 345° |
| 2026-04-23 01:45 | 20.29056 | 110.54937 | 13122 ft | 375 kts | 345° |
| 2026-04-23 01:46 | 20.32470 | 110.54074 | 13972 ft | 380 kts | 345° |
| 2026-04-23 01:46 | 20.34176 | 110.53642 | 14346 ft | 382 kts | 345° |
| 2026-04-23 01:46 | 20.36774 | 110.52983 | 14903 ft | 386 kts | 344° |
| 2026-04-23 01:46 | 20.39396 | 110.52318 | 15454 ft | 389 kts | 344° |
| 2026-04-23 01:47 | 20.42945 | 110.51418 | 16194 ft | 394 kts | 344° |
| 2026-04-23 01:47 | 20.45624 | 110.50740 | 16724 ft | 398 kts | 345° |
| 2026-04-23 01:47 | 20.48404 | 110.50512 | 17213 ft | 408 kts | 4° |
| 2026-04-23 01:47 | 20.50253 | 110.50947 | 17559 ft | 415 kts | 17° |
| 2026-04-23 01:48 | 20.52808 | 110.52417 | 18068 ft | 423 kts | 37° |
| 2026-04-23 01:48 | 20.54885 | 110.54671 | 18495 ft | 429 kts | 47° |
| 2026-04-23 01:48 | 20.56831 | 110.57107 | 18915 ft | 433 kts | 49° |
| 2026-04-23 01:48 | 20.58762 | 110.59584 | 19302 ft | 437 kts | 49° |
| 2026-04-23 01:49 | 20.60713 | 110.62088 | 19710 ft | 440 kts | 48° |
| 2026-04-23 01:49 | 20.62685 | 110.64600 | 20113 ft | 443 kts | 48° |
| 2026-04-23 01:49 | 20.64680 | 110.67117 | 20503 ft | 446 kts | 47° |
| 2026-04-23 01:49 | 20.66701 | 110.69650 | 20894 ft | 449 kts | 47° |
| 2026-04-23 01:50 | 20.68737 | 110.72193 | 21268 ft | 452 kts | 47° |
| 2026-04-23 01:50 | 20.70790 | 110.74752 | 21660 ft | 455 kts | 47° |
| 2026-04-23 01:50 | 20.73531 | 110.78170 | 22144 ft | 460 kts | 47° |
| 2026-04-23 01:50 | 20.74939 | 110.79927 | 22384 ft | 462 kts | 47° |
| 2026-04-23 01:51 | 20.77034 | 110.82542 | 22739 ft | 465 kts | 47° |
| 2026-04-23 01:51 | 20.79142 | 110.85175 | 23085 ft | 468 kts | 47° |
| 2026-04-23 01:51 | 20.81263 | 110.87828 | 23421 ft | 470 kts | 47° |
| 2026-04-23 01:51 | 20.83393 | 110.90491 | 23705 ft | 473 kts | 47° |
| 2026-04-23 01:52 | 20.85536 | 110.93175 | 24004 ft | 475 kts | 47° |
| 2026-04-23 01:52 | 20.87681 | 110.95862 | 24312 ft | 476 kts | 47° |
| 2026-04-23 01:52 | 20.89839 | 110.98565 | 24621 ft | 478 kts | 47° |
| 2026-04-23 01:52 | 20.91971 | 111.01238 | 24896 ft | 480 kts | 47° |
| 2026-04-23 01:53 | 20.94168 | 111.03993 | 25178 ft | 482 kts | 47° |
| 2026-04-23 01:53 | 20.96321 | 111.06691 | 25454 ft | 484 kts | 47° |
| 2026-04-23 01:53 | 20.98516 | 111.09428 | 25724 ft | 485 kts | 47° |
| 2026-04-23 01:53 | 21.00724 | 111.12173 | 26002 ft | 487 kts | 47° |
| 2026-04-23 01:54 | 21.02937 | 111.14922 | 26277 ft | 489 kts | 47° |
| 2026-04-23 01:54 | 21.05158 | 111.17683 | 26549 ft | 490 kts | 47° |
| 2026-04-23 01:54 | 21.07382 | 111.20451 | 26808 ft | 492 kts | 47° |
| 2026-04-23 01:54 | 21.09615 | 111.23234 | 27059 ft | 493 kts | 47° |
| 2026-04-23 01:55 | 21.11855 | 111.26028 | 27304 ft | 495 kts | 47° |
| 2026-04-23 01:55 | 21.14102 | 111.28832 | 27546 ft | 497 kts | 47° |
| 2026-04-23 01:55 | 21.16355 | 111.31647 | 27786 ft | 498 kts | 47° |
| 2026-04-23 01:55 | 21.18612 | 111.34467 | 28014 ft | 500 kts | 47° |
| 2026-04-23 01:56 | 21.20879 | 111.37302 | 28263 ft | 501 kts | 47° |
| 2026-04-23 01:56 | 21.23145 | 111.40137 | 28578 ft | 500 kts | 47° |
| 2026-04-23 01:56 | 21.25404 | 111.42965 | 28938 ft | 499 kts | 47° |
| 2026-04-23 01:56 | 21.27657 | 111.45787 | 29308 ft | 497 kts | 47° |
| 2026-04-23 01:57 | 21.29903 | 111.48601 | 29660 ft | 497 kts | 46° |
| 2026-04-23 01:57 | 21.32148 | 111.51415 | 30004 ft | 496 kts | 46° |
| 2026-04-23 01:57 | 21.34385 | 111.54220 | 30321 ft | 494 kts | 46° |
| 2026-04-23 01:57 | 21.36618 | 111.57023 | 30639 ft | 493 kts | 46° |
| 2026-04-23 01:58 | 21.38848 | 111.59822 | 30938 ft | 493 kts | 46° |
| 2026-04-23 01:58 | 21.41080 | 111.62625 | 30970 ft | 496 kts | 46° |
| 2026-04-23 01:58 | 21.45553 | 111.68248 | 30985 ft | 493 kts | 46° |
| 2026-04-23 01:59 | 21.50000 | 111.73845 | 30983 ft | 492 kts | 46° |
| 2026-04-23 01:59 | 21.54419 | 111.79451 | 30980 ft | 493 kts | 50° |
| 2026-04-23 02:00 | 21.57789 | 111.85890 | 30980 ft | 499 kts | 67° |
| 2026-04-23 02:00 | 21.59641 | 111.93036 | 30981 ft | 501 kts | 75° |
| 2026-04-23 02:01 | 21.61298 | 112.00315 | 30973 ft | 502 kts | 75° |
| 2026-04-23 02:01 | 21.63004 | 112.07589 | 30974 ft | 502 kts | 74° |
| 2026-04-23 02:02 | 21.64749 | 112.14866 | 30976 ft | 503 kts | 74° |
| 2026-04-23 02:02 | 21.66502 | 112.22162 | 30976 ft | 504 kts | 74° |
| 2026-04-23 02:03 | 21.68251 | 112.29466 | 30969 ft | 505 kts | 74° |
| 2026-04-23 02:03 | 21.69994 | 112.36774 | 30970 ft | 505 kts | 74° |
| 2026-04-23 02:04 | 21.71736 | 112.44092 | 30968 ft | 505 kts | 74° |
| 2026-04-23 02:04 | 21.73472 | 112.51403 | 30965 ft | 505 kts | 74° |
| 2026-04-23 02:05 | 21.75209 | 112.58718 | 30968 ft | 504 kts | 74° |
| 2026-04-23 02:05 | 21.76964 | 112.66012 | 30965 ft | 504 kts | 74° |
| 2026-04-23 02:06 | 21.78715 | 112.73270 | 30941 ft | 490 kts | 74° |
| 2026-04-23 02:06 | 21.79553 | 112.76761 | 30938 ft | 474 kts | 74° |
| 2026-04-23 02:06 | 21.80365 | 112.80147 | 30933 ft | 460 kts | 74° |
| 2026-04-23 02:07 | 21.81150 | 112.83427 | 30935 ft | 446 kts | 74° |
| 2026-04-23 02:07 | 21.81911 | 112.86606 | 30933 ft | 432 kts | 74° |
| 2026-04-23 02:07 | 21.82648 | 112.89690 | 30931 ft | 420 kts | 74° |
| 2026-04-23 02:07 | 21.83364 | 112.92684 | 30935 ft | 407 kts | 74° |
| 2026-04-23 02:08 | 21.84059 | 112.95590 | 30929 ft | 395 kts | 74° |
| 2026-04-23 02:08 | 21.84731 | 112.98408 | 30931 ft | 383 kts | 74° |
| 2026-04-23 02:08 | 21.86023 | 113.03856 | 30963 ft | 377 kts | 75° |
| 2026-04-23 02:09 | 21.87327 | 113.09396 | 30643 ft | 383 kts | 74° |
| 2026-04-23 02:09 | 21.87982 | 113.12185 | 30254 ft | 385 kts | 75° |
| 2026-04-23 02:09 | 21.88640 | 113.14990 | 29822 ft | 388 kts | 75° |
| 2026-04-23 02:10 | 21.89304 | 113.17818 | 29271 ft | 392 kts | 75° |
| 2026-04-23 02:10 | 21.89976 | 113.20681 | 28555 ft | 400 kts | 75° |
| 2026-04-23 02:10 | 21.90665 | 113.23618 | 27330 ft | 422 kts | 75° |
| 2026-04-23 02:10 | 21.91547 | 113.26758 | 25966 ft | 440 kts | 63° |
| 2026-04-23 02:11 | 21.93218 | 113.29489 | 24683 ft | 447 kts | 44° |
| 2026-04-23 02:11 | 21.95628 | 113.31578 | 23578 ft | 445 kts | 26° |
| 2026-04-23 02:11 | 21.98340 | 113.33156 | 22630 ft | 441 kts | 23° |
| 2026-04-23 02:11 | 22.01040 | 113.34646 | 21886 ft | 432 kts | 23° |
| 2026-04-23 02:12 | 22.03696 | 113.36108 | 21173 ft | 424 kts | 23° |
| 2026-04-23 02:12 | 22.06295 | 113.37559 | 20402 ft | 419 kts | 24° |
| 2026-04-23 02:12 | 22.08862 | 113.39014 | 19630 ft | 414 kts | 24° |
| 2026-04-23 02:12 | 22.11390 | 113.40462 | 18893 ft | 409 kts | 25° |
| 2026-04-23 02:13 | 22.13883 | 113.41897 | 18191 ft | 404 kts | 25° |
| 2026-04-23 02:13 | 22.16350 | 113.43317 | 17389 ft | 399 kts | 25° |
| 2026-04-23 02:13 | 22.18787 | 113.44720 | 16598 ft | 395 kts | 25° |
| 2026-04-23 02:13 | 22.21296 | 113.45789 | 15845 ft | 384 kts | 7° |
| 2026-04-23 02:14 | 22.23914 | 113.45945 | 15098 ft | 372 kts | 350° |
| 2026-04-23 02:14 | 22.26399 | 113.45325 | 14368 ft | 364 kts | 339° |
| 2026-04-23 02:14 | 22.28793 | 113.44475 | 13651 ft | 361 kts | 338° |
| 2026-04-23 02:14 | 22.31162 | 113.43600 | 12863 ft | 358 kts | 338° |
| 2026-04-23 02:15 | 22.35751 | 113.41957 | 11907 ft | 337 kts | 338° |
| 2026-04-23 02:15 | 22.37945 | 113.41193 | 11603 ft | 324 kts | 338° |
| 2026-04-23 02:15 | 22.40049 | 113.40463 | 11461 ft | 312 kts | 338° |
| 2026-04-23 02:16 | 22.42101 | 113.39797 | 11350 ft | 307 kts | 345° |
| 2026-04-23 02:16 | 22.44257 | 113.39836 | 11247 ft | 326 kts | 11° |
| 2026-04-23 02:16 | 22.46313 | 113.40930 | 11049 ft | 327 kts | 40° |
| 2026-04-23 02:16 | 22.47659 | 113.42854 | 10639 ft | 324 kts | 63° |
| 2026-04-23 02:17 | 22.48587 | 113.45090 | 9998 ft | 327 kts | 66° |
| 2026-04-23 02:17 | 22.49474 | 113.47328 | 9349 ft | 329 kts | 66° |
| 2026-04-23 02:17 | 22.50397 | 113.49585 | 8748 ft | 327 kts | 65° |
| 2026-04-23 02:17 | 22.51331 | 113.51821 | 8168 ft | 326 kts | 65° |
| 2026-04-23 02:18 | 22.52387 | 113.53972 | 7570 ft | 323 kts | 51° |
| 2026-04-23 02:18 | 22.54056 | 113.55536 | 7006 ft | 316 kts | 26° |
| 2026-04-23 02:18 | 22.56099 | 113.56297 | 6502 ft | 306 kts | 4° |
| 2026-04-23 02:18 | 22.58161 | 113.56445 | 6292 ft | 291 kts | 359° |
| 2026-04-23 02:19 | 22.60146 | 113.56513 | 5995 ft | 281 kts | 358° |
| 2026-04-23 02:19 | 22.62067 | 113.56571 | 5688 ft | 272 kts | 359° |
| 2026-04-23 02:19 | 22.63937 | 113.56631 | 5387 ft | 265 kts | 359° |
| 2026-04-23 02:19 | 22.65755 | 113.56696 | 5097 ft | 258 kts | 360° |
| 2026-04-23 02:20 | 22.67533 | 113.56765 | 4801 ft | 253 kts | 0° |
| 2026-04-23 02:20 | 22.69274 | 113.56835 | 4512 ft | 248 kts | 0° |
| 2026-04-23 02:20 | 22.70981 | 113.56905 | 4217 ft | 241 kts | 0° |
| 2026-04-23 02:20 | 22.72622 | 113.56973 | 3946 ft | 231 kts | 0° |
| 2026-04-23 02:21 | 22.74205 | 113.57033 | 3644 ft | 225 kts | 360° |
| 2026-04-23 02:21 | 22.75770 | 113.57079 | 3376 ft | 225 kts | 0° |
| 2026-04-23 02:21 | 22.77341 | 113.57124 | 3105 ft | 227 kts | 0° |
| 2026-04-23 02:21 | 22.78904 | 113.57171 | 3018 ft | 222 kts | 0° |
| 2026-04-23 02:22 | 22.80446 | 113.57217 | 3001 ft | 222 kts | 0° |
| 2026-04-23 02:22 | 22.81975 | 113.57286 | 2994 ft | 220 kts | 7° |
| 2026-04-23 02:22 | 22.83332 | 113.57994 | 2980 ft | 219 kts | 47° |
| 2026-04-23 02:22 | 22.84165 | 113.59330 | 2989 ft | 210 kts | 63° |
| 2026-04-23 02:23 | 22.84817 | 113.60701 | 2980 ft | 202 kts | 65° |
| 2026-04-23 02:23 | 22.85448 | 113.62053 | 2998 ft | 201 kts | 64° |
| 2026-04-23 02:23 | 22.86088 | 113.63412 | 2992 ft | 203 kts | 64° |
| 2026-04-23 02:23 | 22.86735 | 113.64776 | 2985 ft | 204 kts | 64° |
| 2026-04-23 02:24 | 22.87216 | 113.66195 | 2954 ft | 200 kts | 92° |
| 2026-04-23 02:24 | 22.86757 | 113.67505 | 2988 ft | 183 kts | 140° |
| 2026-04-23 02:24 | 22.85755 | 113.68372 | 3000 ft | 188 kts | 144° |
| 2026-04-23 02:24 | 22.84699 | 113.69223 | 3000 ft | 191 kts | 148° |
| 2026-04-23 02:25 | 22.83630 | 113.70029 | 2991 ft | 189 kts | 149° |
| 2026-04-23 02:25 | 22.82522 | 113.70769 | 2980 ft | 185 kts | 153° |
| 2026-04-23 02:25 | 22.81401 | 113.71429 | 2977 ft | 182 kts | 155° |
| 2026-04-23 02:25 | 22.80263 | 113.72067 | 2987 ft | 186 kts | 155° |
| 2026-04-23 02:26 | 22.79097 | 113.72710 | 2895 ft | 190 kts | 155° |
| 2026-04-23 02:26 | 22.77922 | 113.73358 | 2652 ft | 187 kts | 155° |
| 2026-04-23 02:26 | 22.76780 | 113.73989 | 2420 ft | 182 kts | 155° |
| 2026-04-23 02:26 | 22.75667 | 113.74601 | 2200 ft | 178 kts | 156° |
| 2026-04-23 02:27 | 22.74575 | 113.75202 | 1969 ft | 173 kts | 156° |
| 2026-04-23 02:27 | 22.73537 | 113.75774 | 1760 ft | 162 kts | 155° |
| 2026-04-23 02:27 | 22.72576 | 113.76304 | 1581 ft | 147 kts | 155° |
| 2026-04-23 02:27 | 22.71679 | 113.76797 | 1373 ft | 143 kts | 156° |
| 2026-04-23 02:28 | 22.70774 | 113.77294 | 1194 ft | 147 kts | 154° |
| 2026-04-23 02:28 | 22.69861 | 113.77801 | 976 ft | 146 kts | 156° |
| 2026-04-23 02:28 | 22.68970 | 113.78284 | 848 ft | 142 kts | 156° |
| 2026-04-23 02:28 | 22.68079 | 113.78777 | 672 ft | 141 kts | 157° |
| 2026-04-23 02:29 | 22.67219 | 113.79249 | 517 ft | 137 kts | 155° |
| 2026-04-23 02:29 | 22.66373 | 113.79720 | 274 ft | 136 kts | 156° |
| 2026-04-23 02:29 | 22.65548 | 113.80171 | 107 ft | 129 kts | 154° |
| 2026-04-23 02:29 | 22.64774 | 113.80596 | 16 ft | 116 kts | 152° |
| 2026-04-23 02:30 | 22.64186 | 113.80918 | 14 ft | 73 kts | 153° |
| 2026-04-23 02:30 | 22.63853 | 113.81101 | 14 ft | 42 kts | 153° |
| 2026-04-23 02:30 | 22.63640 | 113.81215 | 14 ft | 31 kts | 160° |
| 2026-04-23 02:30 | 22.63472 | 113.81252 | 14 ft | 14 kts | 179° |
| 2026-04-23 02:31 | 22.63386 | 113.81247 | 14 ft | 11 kts | 184° |
| 2026-04-23 02:31 | 22.63318 | 113.81221 | 14 ft | 11 kts | 235° |
| 2026-04-23 02:31 | 22.63287 | 113.81148 | 14 ft | 11 kts | 246° |
| 2026-04-23 02:31 | 22.63299 | 113.81079 | 16 ft | 10 kts | 320° |
| 2026-04-23 02:32 | 22.63336 | 113.81059 | 14 ft | 10 kts | 325° |
| 2026-04-23 02:32 | 22.63346 | 113.81031 | 14 ft | 10 kts | 274° |
| 2026-04-23 02:32 | 22.63319 | 113.80959 | 14 ft | 11 kts | 242° |
| 2026-04-23 02:32 | 22.63301 | 113.80894 | 14 ft | 0 kts | 271° |
| 2026-04-23 02:33 | 22.63309 | 113.80881 | 16 ft | 4 kts | 320° |
| 2026-04-23 02:33 | 22.63335 | 113.80871 | 14 ft | 4 kts | 335° |
| 2026-04-23 02:33 | 22.63349 | 113.80864 | 14 ft | 0 kts | 334° |
| 2026-04-23 02:33 | 22.63353 | 113.80861 | 14 ft | 0 kts | 334° |